sensor_id;sensor_type;location;lat;lon;timestamp;P1;durP1;ratioP1;P2;durP2;ratioP2
7359;SDS011;3720;48.274;7.796;2023-05-19T00:01:48;8.70;;;4.13;;
7359;SDS011;3720;48.274;7.796;2023-05-19T00:04:21;6.95;;;3.65;;
7359;SDS011;3720;48.274;7.796;2023-05-19T00:06:54;8.70;;;4.13;;
7359;SDS011;3720;48.274;7.796;2023-05-19T00:09:30;8.90;;;4.00;;
7359;SDS011;3720;48.274;7.796;2023-05-19T00:12:03;11.52;;;3.75;;
7359;SDS011;3720;48.274;7.796;2023-05-19T00:14:36;9.93;;;3.63;;
7359;SDS011;3720;48.274;7.796;2023-05-19T00:17:08;7.80;;;3.90;;
7359;SDS011;3720;48.274;7.796;2023-05-19T00:19:40;8.82;;;3.70;;
7359;SDS011;3720;48.274;7.796;2023-05-19T00:22:14;7.32;;;3.83;;
7359;SDS011;3720;48.274;7.796;2023-05-19T00:24:47;5.93;;;3.65;;
7359;SDS011;3720;48.274;7.796;2023-05-19T00:27:19;10.20;;;4.18;;
7359;SDS011;3720;48.274;7.796;2023-05-19T00:29:51;8.85;;;4.07;;
7359;SDS011;3720;48.274;7.796;2023-05-19T00:32:23;11.88;;;4.82;;
7359;SDS011;3720;48.274;7.796;2023-05-19T00:34:55;11.10;;;4.72;;
7359;SDS011;3720;48.274;7.796;2023-05-19T00:37:26;11.02;;;4.43;;
7359;SDS011;3720;48.274;7.796;2023-05-19T00:40:00;8.55;;;4.40;;
7359;SDS011;3720;48.274;7.796;2023-05-19T00:42:35;9.32;;;4.35;;
7359;SDS011;3720;48.274;7.796;2023-05-19T00:45:07;9.38;;;4.10;;
7359;SDS011;3720;48.274;7.796;2023-05-19T00:47:39;9.98;;;4.40;;
7359;SDS011;3720;48.274;7.796;2023-05-19T00:50:11;9.25;;;4.43;;
7359;SDS011;3720;48.274;7.796;2023-05-19T00:52:43;7.93;;;4.10;;
7359;SDS011;3720;48.274;7.796;2023-05-19T00:55:17;9.95;;;4.18;;
7359;SDS011;3720;48.274;7.796;2023-05-19T00:57:50;9.15;;;3.60;;
7359;SDS011;3720;48.274;7.796;2023-05-19T01:00:23;11.60;;;3.90;;
7359;SDS011;3720;48.274;7.796;2023-05-19T01:02:55;9.45;;;3.85;;
7359;SDS011;3720;48.274;7.796;2023-05-19T01:05:27;9.48;;;3.70;;
7359;SDS011;3720;48.274;7.796;2023-05-19T01:07:59;8.25;;;3.35;;
7359;SDS011;3720;48.274;7.796;2023-05-19T01:10:33;8.90;;;3.88;;
7359;SDS011;3720;48.274;7.796;2023-05-19T01:13:05;10.07;;;3.70;;
7359;SDS011;3720;48.274;7.796;2023-05-19T01:15:39;9.80;;;3.65;;
7359;SDS011;3720;48.274;7.796;2023-05-19T01:18:31;13.15;;;3.70;;
7359;SDS011;3720;48.274;7.796;2023-05-19T01:21:19;8.00;;;3.30;;
7359;SDS011;3720;48.274;7.796;2023-05-19T01:24:12;9.13;;;3.53;;
7359;SDS011;3720;48.274;7.796;2023-05-19T01:30:19;8.38;;;3.25;;
7359;SDS011;3720;48.274;7.796;2023-05-19T01:32:58;8.40;;;3.40;;
7359;SDS011;3720;48.274;7.796;2023-05-19T01:35:33;7.78;;;3.30;;
7359;SDS011;3720;48.274;7.796;2023-05-19T01:38:08;7.70;;;2.95;;
7359;SDS011;3720;48.274;7.796;2023-05-19T01:40:40;10.95;;;3.47;;
7359;SDS011;3720;48.274;7.796;2023-05-19T01:43:14;7.18;;;3.70;;
7359;SDS011;3720;48.274;7.796;2023-05-19T01:45:50;9.57;;;3.50;;
7359;SDS011;3720;48.274;7.796;2023-05-19T01:48:23;10.88;;;3.70;;
7359;SDS011;3720;48.274;7.796;2023-05-19T01:50:55;7.88;;;3.78;;
7359;SDS011;3720;48.274;7.796;2023-05-19T01:53:27;11.32;;;3.92;;
7359;SDS011;3720;48.274;7.796;2023-05-19T01:55:59;10.15;;;3.75;;
7359;SDS011;3720;48.274;7.796;2023-05-19T01:58:33;8.63;;;3.85;;
7359;SDS011;3720;48.274;7.796;2023-05-19T02:01:15;7.68;;;3.75;;
7359;SDS011;3720;48.274;7.796;2023-05-19T02:04:06;8.88;;;3.72;;
7359;SDS011;3720;48.274;7.796;2023-05-19T02:06:50;7.78;;;4.00;;
7359;SDS011;3720;48.274;7.796;2023-05-19T02:09:33;7.78;;;3.72;;
7359;SDS011;3720;48.274;7.796;2023-05-19T02:12:11;8.30;;;3.80;;
7359;SDS011;3720;48.274;7.796;2023-05-19T02:14:51;10.70;;;3.78;;
7359;SDS011;3720;48.274;7.796;2023-05-19T02:17:30;9.95;;;3.70;;
7359;SDS011;3720;48.274;7.796;2023-05-19T02:20:05;7.90;;;3.53;;
7359;SDS011;3720;48.274;7.796;2023-05-19T02:22:38;10.05;;;3.78;;
7359;SDS011;3720;48.274;7.796;2023-05-19T02:25:10;8.52;;;4.22;;
7359;SDS011;3720;48.274;7.796;2023-05-19T02:27:43;8.65;;;3.85;;
7359;SDS011;3720;48.274;7.796;2023-05-19T02:30:15;9.02;;;4.03;;
7359;SDS011;3720;48.274;7.796;2023-05-19T02:32:48;8.35;;;3.83;;
7359;SDS011;3720;48.274;7.796;2023-05-19T02:35:23;8.20;;;3.60;;
7359;SDS011;3720;48.274;7.796;2023-05-19T02:37:54;9.40;;;4.07;;
7359;SDS011;3720;48.274;7.796;2023-05-19T02:40:26;8.68;;;3.63;;
7359;SDS011;3720;48.274;7.796;2023-05-19T02:42:58;8.77;;;3.88;;
7359;SDS011;3720;48.274;7.796;2023-05-19T02:45:30;6.72;;;3.25;;
7359;SDS011;3720;48.274;7.796;2023-05-19T02:48:04;10.18;;;4.10;;
7359;SDS011;3720;48.274;7.796;2023-05-19T02:50:36;8.52;;;3.80;;
7359;SDS011;3720;48.274;7.796;2023-05-19T02:53:08;8.18;;;3.42;;
7359;SDS011;3720;48.274;7.796;2023-05-19T02:55:41;7.88;;;3.45;;
7359;SDS011;3720;48.274;7.796;2023-05-19T02:58:12;6.90;;;3.53;;
7359;SDS011;3720;48.274;7.796;2023-05-19T03:00:44;9.05;;;3.40;;
7359;SDS011;3720;48.274;7.796;2023-05-19T03:03:18;9.50;;;3.85;;
7359;SDS011;3720;48.274;7.796;2023-05-19T03:05:50;9.57;;;3.85;;
7359;SDS011;3720;48.274;7.796;2023-05-19T03:08:22;9.13;;;3.38;;
7359;SDS011;3720;48.274;7.796;2023-05-19T03:10:54;11.90;;;3.75;;
7359;SDS011;3720;48.274;7.796;2023-05-19T03:13:26;12.63;;;3.70;;
7359;SDS011;3720;48.274;7.796;2023-05-19T03:15:58;10.90;;;3.80;;
7359;SDS011;3720;48.274;7.796;2023-05-19T03:18:32;9.25;;;3.42;;
7359;SDS011;3720;48.274;7.796;2023-05-19T03:21:04;7.28;;;3.78;;
7359;SDS011;3720;48.274;7.796;2023-05-19T03:23:36;8.30;;;3.50;;
7359;SDS011;3720;48.274;7.796;2023-05-19T03:26:07;8.20;;;3.83;;
7359;SDS011;3720;48.274;7.796;2023-05-19T03:28:39;10.52;;;3.70;;
7359;SDS011;3720;48.274;7.796;2023-05-19T03:31:11;10.07;;;4.00;;
7359;SDS011;3720;48.274;7.796;2023-05-19T03:33:45;8.80;;;3.60;;
7359;SDS011;3720;48.274;7.796;2023-05-19T03:36:16;6.05;;;3.38;;
7359;SDS011;3720;48.274;7.796;2023-05-19T03:38:48;9.75;;;3.85;;
7359;SDS011;3720;48.274;7.796;2023-05-19T03:41:20;7.53;;;3.67;;
7359;SDS011;3720;48.274;7.796;2023-05-19T03:43:52;8.77;;;3.60;;
7359;SDS011;3720;48.274;7.796;2023-05-19T03:46:24;9.73;;;3.53;;
7359;SDS011;3720;48.274;7.796;2023-05-19T03:48:58;9.25;;;3.38;;
7359;SDS011;3720;48.274;7.796;2023-05-19T03:51:30;7.43;;;3.50;;
7359;SDS011;3720;48.274;7.796;2023-05-19T03:54:04;9.27;;;3.78;;
7359;SDS011;3720;48.274;7.796;2023-05-19T03:56:37;6.68;;;3.20;;
7359;SDS011;3720;48.274;7.796;2023-05-19T03:59:10;8.43;;;3.30;;
7359;SDS011;3720;48.274;7.796;2023-05-19T04:01:41;10.68;;;3.72;;
7359;SDS011;3720;48.274;7.796;2023-05-19T04:04:15;9.20;;;3.45;;
7359;SDS011;3720;48.274;7.796;2023-05-19T04:06:47;7.65;;;3.63;;
7359;SDS011;3720;48.274;7.796;2023-05-19T04:09:18;9.65;;;3.38;;
7359;SDS011;3720;48.274;7.796;2023-05-19T04:11:52;9.52;;;3.95;;
7359;SDS011;3720;48.274;7.796;2023-05-19T04:14:24;8.52;;;3.90;;
7359;SDS011;3720;48.274;7.796;2023-05-19T04:16:56;7.85;;;3.53;;
7359;SDS011;3720;48.274;7.796;2023-05-19T04:19:30;8.20;;;3.38;;
7359;SDS011;3720;48.274;7.796;2023-05-19T04:22:02;8.20;;;3.65;;
7359;SDS011;3720;48.274;7.796;2023-05-19T04:24:34;8.13;;;3.60;;
7359;SDS011;3720;48.274;7.796;2023-05-19T04:27:06;6.25;;;3.20;;
7359;SDS011;3720;48.274;7.796;2023-05-19T04:29:40;5.70;;;3.00;;
7359;SDS011;3720;48.274;7.796;2023-05-19T04:32:12;6.05;;;3.38;;
7359;SDS011;3720;48.274;7.796;2023-05-19T04:34:47;7.40;;;3.20;;
7359;SDS011;3720;48.274;7.796;2023-05-19T04:37:20;6.75;;;3.50;;
7359;SDS011;3720;48.274;7.796;2023-05-19T04:39:53;8.02;;;3.45;;
7359;SDS011;3720;48.274;7.796;2023-05-19T04:42:25;8.13;;;3.50;;
7359;SDS011;3720;48.274;7.796;2023-05-19T04:47:34;6.72;;;3.20;;
7359;SDS011;3720;48.274;7.796;2023-05-19T04:50:09;9.48;;;3.40;;
7359;SDS011;3720;48.274;7.796;2023-05-19T04:52:41;7.13;;;3.50;;
7359;SDS011;3720;48.274;7.796;2023-05-19T04:55:14;9.60;;;3.70;;
7359;SDS011;3720;48.274;7.796;2023-05-19T04:57:46;7.50;;;3.60;;
7359;SDS011;3720;48.274;7.796;2023-05-19T05:00:19;9.13;;;3.78;;
7359;SDS011;3720;48.274;7.796;2023-05-19T05:02:51;10.93;;;3.70;;
7359;SDS011;3720;48.274;7.796;2023-05-19T05:05:27;8.35;;;3.67;;
7359;SDS011;3720;48.274;7.796;2023-05-19T05:07:59;10.82;;;3.58;;
7359;SDS011;3720;48.274;7.796;2023-05-19T05:10:32;9.82;;;3.40;;
7359;SDS011;3720;48.274;7.796;2023-05-19T05:13:04;9.63;;;3.92;;
7359;SDS011;3720;48.274;7.796;2023-05-19T05:15:36;8.73;;;3.67;;
7359;SDS011;3720;48.274;7.796;2023-05-19T05:18:09;7.25;;;3.13;;
7359;SDS011;3720;48.274;7.796;2023-05-19T05:20:43;7.18;;;3.53;;
7359;SDS011;3720;48.274;7.796;2023-05-19T05:23:17;10.85;;;3.63;;
7359;SDS011;3720;48.274;7.796;2023-05-19T05:25:50;7.78;;;3.45;;
7359;SDS011;3720;48.274;7.796;2023-05-19T05:28:22;8.57;;;3.53;;
7359;SDS011;3720;48.274;7.796;2023-05-19T05:30:54;9.25;;;3.10;;
7359;SDS011;3720;48.274;7.796;2023-05-19T05:33:26;10.68;;;3.88;;
7359;SDS011;3720;48.274;7.796;2023-05-19T05:36:00;8.32;;;3.40;;
7359;SDS011;3720;48.274;7.796;2023-05-19T05:38:32;10.25;;;4.00;;
7359;SDS011;3720;48.274;7.796;2023-05-19T05:41:05;8.10;;;3.45;;
7359;SDS011;3720;48.274;7.796;2023-05-19T05:43:37;9.60;;;3.70;;
7359;SDS011;3720;48.274;7.796;2023-05-19T05:46:08;9.85;;;3.50;;
7359;SDS011;3720;48.274;7.796;2023-05-19T05:48:40;13.90;;;4.15;;
7359;SDS011;3720;48.274;7.796;2023-05-19T05:51:15;9.50;;;3.85;;
7359;SDS011;3720;48.274;7.796;2023-05-19T05:53:48;8.88;;;3.75;;
7359;SDS011;3720;48.274;7.796;2023-05-19T05:56:23;7.43;;;3.50;;
7359;SDS011;3720;48.274;7.796;2023-05-19T05:58:55;8.48;;;3.60;;
7359;SDS011;3720;48.274;7.796;2023-05-19T06:01:27;7.80;;;3.67;;
7359;SDS011;3720;48.274;7.796;2023-05-19T06:04:00;6.72;;;3.50;;
7359;SDS011;3720;48.274;7.796;2023-05-19T06:06:33;7.70;;;3.30;;
7359;SDS011;3720;48.274;7.796;2023-05-19T06:09:07;7.85;;;3.60;;
7359;SDS011;3720;48.274;7.796;2023-05-19T06:11:38;9.18;;;3.80;;
7359;SDS011;3720;48.274;7.796;2023-05-19T06:14:10;7.60;;;3.50;;
7359;SDS011;3720;48.274;7.796;2023-05-19T06:16:42;7.93;;;3.40;;
7359;SDS011;3720;48.274;7.796;2023-05-19T06:19:14;10.23;;;3.80;;
7359;SDS011;3720;48.274;7.796;2023-05-19T06:21:48;8.07;;;3.40;;
7359;SDS011;3720;48.274;7.796;2023-05-19T06:24:20;6.25;;;3.38;;
7359;SDS011;3720;48.274;7.796;2023-05-19T06:26:52;9.20;;;3.45;;
7359;SDS011;3720;48.274;7.796;2023-05-19T06:29:23;7.30;;;3.67;;
7359;SDS011;3720;48.274;7.796;2023-05-19T06:31:55;8.10;;;3.88;;
7359;SDS011;3720;48.274;7.796;2023-05-19T06:34:27;6.05;;;3.35;;
7359;SDS011;3720;48.274;7.796;2023-05-19T06:37:00;8.48;;;3.78;;
7359;SDS011;3720;48.274;7.796;2023-05-19T06:39:33;9.77;;;3.75;;
7359;SDS011;3720;48.274;7.796;2023-05-19T06:42:05;9.07;;;3.83;;
7359;SDS011;3720;48.274;7.796;2023-05-19T06:44:37;6.95;;;3.80;;
7359;SDS011;3720;48.274;7.796;2023-05-19T06:47:09;8.00;;;3.65;;
7359;SDS011;3720;48.274;7.796;2023-05-19T06:49:40;7.05;;;3.50;;
7359;SDS011;3720;48.274;7.796;2023-05-19T06:52:14;6.72;;;3.70;;
7359;SDS011;3720;48.274;7.796;2023-05-19T06:54:46;6.57;;;3.40;;
7359;SDS011;3720;48.274;7.796;2023-05-19T06:57:18;8.18;;;3.83;;
7359;SDS011;3720;48.274;7.796;2023-05-19T06:59:50;8.52;;;3.70;;
7359;SDS011;3720;48.274;7.796;2023-05-19T07:02:21;8.60;;;3.63;;
7359;SDS011;3720;48.274;7.796;2023-05-19T07:04:54;8.07;;;3.67;;
7359;SDS011;3720;48.274;7.796;2023-05-19T07:07:27;11.45;;;3.85;;
7359;SDS011;3720;48.274;7.796;2023-05-19T07:09:59;12.10;;;3.80;;
7359;SDS011;3720;48.274;7.796;2023-05-19T07:12:31;9.30;;;3.60;;
7359;SDS011;3720;48.274;7.796;2023-05-19T07:15:04;9.23;;;4.00;;
7359;SDS011;3720;48.274;7.796;2023-05-19T07:17:36;7.70;;;3.70;;
7359;SDS011;3720;48.274;7.796;2023-05-19T07:20:09;8.15;;;3.90;;
7359;SDS011;3720;48.274;7.796;2023-05-19T07:22:43;6.10;;;3.50;;
7359;SDS011;3720;48.274;7.796;2023-05-19T07:25:15;8.23;;;3.20;;
7359;SDS011;3720;48.274;7.796;2023-05-19T07:27:47;7.55;;;3.42;;
7359;SDS011;3720;48.274;7.796;2023-05-19T07:30:19;13.07;;;3.85;;
7359;SDS011;3720;48.274;7.796;2023-05-19T07:32:51;20.33;;;4.00;;
7359;SDS011;3720;48.274;7.796;2023-05-19T07:35:23;11.27;;;3.63;;
7359;SDS011;3720;48.274;7.796;2023-05-19T07:37:58;13.82;;;3.72;;
7359;SDS011;3720;48.274;7.796;2023-05-19T07:40:30;13.18;;;3.90;;
7359;SDS011;3720;48.274;7.796;2023-05-19T07:43:02;6.93;;;3.33;;
7359;SDS011;3720;48.274;7.796;2023-05-19T07:45:33;9.75;;;3.20;;
7359;SDS011;3720;48.274;7.796;2023-05-19T07:48:05;9.98;;;3.28;;
7359;SDS011;3720;48.274;7.796;2023-05-19T07:50:37;6.88;;;3.20;;
7359;SDS011;3720;48.274;7.796;2023-05-19T07:53:11;8.90;;;3.47;;
7359;SDS011;3720;48.274;7.796;2023-05-19T07:55:43;11.38;;;3.50;;
7359;SDS011;3720;48.274;7.796;2023-05-19T07:58:15;7.25;;;3.70;;
7359;SDS011;3720;48.274;7.796;2023-05-19T08:00:48;7.22;;;3.40;;
7359;SDS011;3720;48.274;7.796;2023-05-19T08:03:20;7.05;;;3.50;;
7359;SDS011;3720;48.274;7.796;2023-05-19T08:05:52;6.45;;;3.45;;
7359;SDS011;3720;48.274;7.796;2023-05-19T08:08:25;6.18;;;3.33;;
7359;SDS011;3720;48.274;7.796;2023-05-19T08:11:00;5.97;;;3.17;;
7359;SDS011;3720;48.274;7.796;2023-05-19T08:13:32;8.68;;;3.53;;
7359;SDS011;3720;48.274;7.796;2023-05-19T08:16:05;6.10;;;3.45;;
7359;SDS011;3720;48.274;7.796;2023-05-19T08:18:37;10.23;;;3.50;;
7359;SDS011;3720;48.274;7.796;2023-05-19T08:21:09;9.48;;;3.92;;
7359;SDS011;3720;48.274;7.796;2023-05-19T08:23:42;8.18;;;3.58;;
7359;SDS011;3720;48.274;7.796;2023-05-19T08:26:14;7.40;;;3.40;;
7359;SDS011;3720;48.274;7.796;2023-05-19T08:28:46;10.80;;;3.55;;
7359;SDS011;3720;48.274;7.796;2023-05-19T08:31:18;8.57;;;3.35;;
7359;SDS011;3720;48.274;7.796;2023-05-19T08:33:51;6.47;;;3.20;;
7359;SDS011;3720;48.274;7.796;2023-05-19T08:36:24;7.80;;;3.72;;
7359;SDS011;3720;48.274;7.796;2023-05-19T08:38:59;6.78;;;3.30;;
7359;SDS011;3720;48.274;7.796;2023-05-19T08:41:31;7.50;;;3.25;;
7359;SDS011;3720;48.274;7.796;2023-05-19T08:44:03;6.10;;;3.35;;
7359;SDS011;3720;48.274;7.796;2023-05-19T08:46:35;6.72;;;3.42;;
7359;SDS011;3720;48.274;7.796;2023-05-19T08:49:08;7.60;;;3.40;;
7359;SDS011;3720;48.274;7.796;2023-05-19T08:51:45;6.95;;;3.50;;
7359;SDS011;3720;48.274;7.796;2023-05-19T08:54:22;9.00;;;3.50;;
7359;SDS011;3720;48.274;7.796;2023-05-19T08:56:59;6.97;;;3.33;;
7359;SDS011;3720;48.274;7.796;2023-05-19T08:59:32;7.53;;;3.22;;
7359;SDS011;3720;48.274;7.796;2023-05-19T09:02:05;7.25;;;3.30;;
7359;SDS011;3720;48.274;7.796;2023-05-19T09:04:38;6.70;;;3.15;;
7359;SDS011;3720;48.274;7.796;2023-05-19T09:07:14;6.85;;;3.28;;
7359;SDS011;3720;48.274;7.796;2023-05-19T09:09:49;7.72;;;3.42;;
7359;SDS011;3720;48.274;7.796;2023-05-19T09:12:20;9.05;;;3.30;;
7359;SDS011;3720;48.274;7.796;2023-05-19T09:14:53;9.18;;;3.30;;
7359;SDS011;3720;48.274;7.796;2023-05-19T09:17:25;6.78;;;3.15;;
7359;SDS011;3720;48.274;7.796;2023-05-19T09:20:00;8.10;;;3.40;;
7359;SDS011;3720;48.274;7.796;2023-05-19T09:22:33;7.45;;;3.45;;
7359;SDS011;3720;48.274;7.796;2023-05-19T09:25:17;7.55;;;3.30;;
7359;SDS011;3720;48.274;7.796;2023-05-19T09:27:50;7.25;;;2.95;;
7359;SDS011;3720;48.274;7.796;2023-05-19T09:30:25;10.10;;;3.17;;
7359;SDS011;3720;48.274;7.796;2023-05-19T09:32:57;7.00;;;3.10;;
7359;SDS011;3720;48.274;7.796;2023-05-19T09:35:29;5.85;;;3.33;;
7359;SDS011;3720;48.274;7.796;2023-05-19T09:38:01;7.97;;;3.53;;
7359;SDS011;3720;48.274;7.796;2023-05-19T09:40:35;8.57;;;3.38;;
7359;SDS011;3720;48.274;7.796;2023-05-19T09:43:07;8.70;;;3.83;;
7359;SDS011;3720;48.274;7.796;2023-05-19T09:45:39;6.28;;;3.10;;
7359;SDS011;3720;48.274;7.796;2023-05-19T09:48:11;6.70;;;3.00;;
7359;SDS011;3720;48.274;7.796;2023-05-19T09:50:45;7.50;;;3.42;;
7359;SDS011;3720;48.274;7.796;2023-05-19T09:53:20;7.80;;;3.63;;
7359;SDS011;3720;48.274;7.796;2023-05-19T09:55:55;8.18;;;3.13;;
7359;SDS011;3720;48.274;7.796;2023-05-19T09:58:30;10.18;;;3.65;;
7359;SDS011;3720;48.274;7.796;2023-05-19T10:01:03;7.15;;;3.30;;
7359;SDS011;3720;48.274;7.796;2023-05-19T10:03:36;9.43;;;3.25;;
7359;SDS011;3720;48.274;7.796;2023-05-19T10:06:09;7.85;;;3.38;;
7359;SDS011;3720;48.274;7.796;2023-05-19T10:08:41;7.80;;;3.40;;
7359;SDS011;3720;48.274;7.796;2023-05-19T10:11:16;8.05;;;3.40;;
7359;SDS011;3720;48.274;7.796;2023-05-19T10:13:49;7.75;;;3.75;;
7359;SDS011;3720;48.274;7.796;2023-05-19T10:16:21;8.43;;;3.70;;
7359;SDS011;3720;48.274;7.796;2023-05-19T10:18:57;6.57;;;3.40;;
7359;SDS011;3720;48.274;7.796;2023-05-19T10:21:30;10.27;;;3.35;;
7359;SDS011;3720;48.274;7.796;2023-05-19T10:24:02;6.45;;;2.88;;
7359;SDS011;3720;48.274;7.796;2023-05-19T10:26:36;9.57;;;3.30;;
7359;SDS011;3720;48.274;7.796;2023-05-19T10:29:10;7.47;;;3.38;;
7359;SDS011;3720;48.274;7.796;2023-05-19T10:31:45;8.98;;;3.35;;
7359;SDS011;3720;48.274;7.796;2023-05-19T10:34:24;9.98;;;3.13;;
7359;SDS011;3720;48.274;7.796;2023-05-19T10:37:11;10.35;;;3.38;;
7359;SDS011;3720;48.274;7.796;2023-05-19T10:39:47;7.95;;;3.15;;
7359;SDS011;3720;48.274;7.796;2023-05-19T10:42:26;9.90;;;3.10;;
7359;SDS011;3720;48.274;7.796;2023-05-19T10:45:12;8.43;;;2.83;;
7359;SDS011;3720;48.274;7.796;2023-05-19T10:47:48;8.88;;;2.90;;
7359;SDS011;3720;48.274;7.796;2023-05-19T10:50:21;6.57;;;3.33;;
7359;SDS011;3720;48.274;7.796;2023-05-19T10:52:54;7.55;;;3.20;;
7359;SDS011;3720;48.274;7.796;2023-05-19T10:55:45;5.90;;;3.08;;
7359;SDS011;3720;48.274;7.796;2023-05-19T10:58:38;6.25;;;2.83;;
7359;SDS011;3720;48.274;7.796;2023-05-19T11:01:19;8.10;;;2.95;;
7359;SDS011;3720;48.274;7.796;2023-05-19T11:03:53;6.18;;;2.70;;
7359;SDS011;3720;48.274;7.796;2023-05-19T11:06:27;4.70;;;2.50;;
7359;SDS011;3720;48.274;7.796;2023-05-19T11:09:01;5.47;;;2.85;;
7359;SDS011;3720;48.274;7.796;2023-05-19T11:11:45;7.38;;;2.63;;
7359;SDS011;3720;48.274;7.796;2023-05-19T11:14:20;8.13;;;3.08;;
7359;SDS011;3720;48.274;7.796;2023-05-19T11:16:55;5.88;;;2.70;;
7359;SDS011;3720;48.274;7.796;2023-05-19T11:19:28;6.03;;;2.45;;
7359;SDS011;3720;48.274;7.796;2023-05-19T11:22:07;9.45;;;2.60;;
7359;SDS011;3720;48.274;7.796;2023-05-19T11:24:42;5.60;;;2.80;;
7359;SDS011;3720;48.274;7.796;2023-05-19T11:27:19;4.95;;;2.58;;
7359;SDS011;3720;48.274;7.796;2023-05-19T11:29:54;5.10;;;2.75;;
7359;SDS011;3720;48.274;7.796;2023-05-19T11:32:28;5.95;;;2.63;;
7359;SDS011;3720;48.274;7.796;2023-05-19T11:35:02;6.13;;;2.60;;
7359;SDS011;3720;48.274;7.796;2023-05-19T11:37:35;6.68;;;2.50;;
7359;SDS011;3720;48.274;7.796;2023-05-19T11:40:09;6.72;;;2.80;;
7359;SDS011;3720;48.274;7.796;2023-05-19T11:42:43;8.05;;;2.80;;
7359;SDS011;3720;48.274;7.796;2023-05-19T11:45:16;6.38;;;2.92;;
7359;SDS011;3720;48.274;7.796;2023-05-19T11:47:55;6.18;;;2.88;;
7359;SDS011;3720;48.274;7.796;2023-05-19T11:50:29;4.70;;;2.55;;
7359;SDS011;3720;48.274;7.796;2023-05-19T11:53:02;6.20;;;3.03;;
7359;SDS011;3720;48.274;7.796;2023-05-19T11:55:34;8.10;;;2.80;;
7359;SDS011;3720;48.274;7.796;2023-05-19T11:58:12;6.65;;;2.85;;
7359;SDS011;3720;48.274;7.796;2023-05-19T12:00:45;5.68;;;2.40;;
7359;SDS011;3720;48.274;7.796;2023-05-19T12:03:19;5.85;;;2.83;;
7359;SDS011;3720;48.274;7.796;2023-05-19T12:05:55;5.30;;;2.40;;
7359;SDS011;3720;48.274;7.796;2023-05-19T12:08:28;6.80;;;2.90;;
7359;SDS011;3720;48.274;7.796;2023-05-19T12:11:00;7.18;;;2.47;;
7359;SDS011;3720;48.274;7.796;2023-05-19T12:13:32;6.45;;;2.67;;
7359;SDS011;3720;48.274;7.796;2023-05-19T12:16:07;4.60;;;2.50;;
7359;SDS011;3720;48.274;7.796;2023-05-19T12:18:39;3.80;;;2.55;;
7359;SDS011;3720;48.274;7.796;2023-05-19T12:21:11;4.72;;;2.85;;
7359;SDS011;3720;48.274;7.796;2023-05-19T12:23:43;5.30;;;2.55;;
7359;SDS011;3720;48.274;7.796;2023-05-19T12:26:14;6.25;;;2.53;;
7359;SDS011;3720;48.274;7.796;2023-05-19T12:28:49;5.78;;;2.70;;
7359;SDS011;3720;48.274;7.796;2023-05-19T12:31:23;3.45;;;2.20;;
7359;SDS011;3720;48.274;7.796;2023-05-19T12:33:56;4.38;;;2.47;;
7359;SDS011;3720;48.274;7.796;2023-05-19T12:36:28;5.95;;;2.40;;
7359;SDS011;3720;48.274;7.796;2023-05-19T12:39:03;5.43;;;2.50;;
7359;SDS011;3720;48.274;7.796;2023-05-19T12:41:35;4.47;;;2.30;;
7359;SDS011;3720;48.274;7.796;2023-05-19T12:44:12;5.72;;;2.80;;
7359;SDS011;3720;48.274;7.796;2023-05-19T12:46:50;4.45;;;2.50;;
7359;SDS011;3720;48.274;7.796;2023-05-19T12:49:22;6.72;;;2.88;;
7359;SDS011;3720;48.274;7.796;2023-05-19T12:51:54;6.60;;;2.53;;
7359;SDS011;3720;48.274;7.796;2023-05-19T12:54:26;5.13;;;2.55;;
7359;SDS011;3720;48.274;7.796;2023-05-19T12:57:01;3.45;;;2.28;;
7359;SDS011;3720;48.274;7.796;2023-05-19T12:59:36;5.22;;;2.50;;
7359;SDS011;3720;48.274;7.796;2023-05-19T13:02:09;4.03;;;2.38;;
7359;SDS011;3720;48.274;7.796;2023-05-19T13:04:41;4.70;;;2.65;;
7359;SDS011;3720;48.274;7.796;2023-05-19T13:07:13;7.28;;;2.92;;
7359;SDS011;3720;48.274;7.796;2023-05-19T13:09:45;6.75;;;2.60;;
7359;SDS011;3720;48.274;7.796;2023-05-19T13:12:17;7.47;;;2.60;;
7359;SDS011;3720;48.274;7.796;2023-05-19T13:14:49;5.65;;;2.50;;
7359;SDS011;3720;48.274;7.796;2023-05-19T13:17:22;6.30;;;2.83;;
7359;SDS011;3720;48.274;7.796;2023-05-19T13:19:54;5.40;;;2.50;;
7359;SDS011;3720;48.274;7.796;2023-05-19T13:22:26;6.18;;;2.47;;
7359;SDS011;3720;48.274;7.796;2023-05-19T13:24:58;7.72;;;2.90;;
7359;SDS011;3720;48.274;7.796;2023-05-19T13:27:31;6.80;;;2.42;;
7359;SDS011;3720;48.274;7.796;2023-05-19T13:30:03;4.40;;;2.20;;
7359;SDS011;3720;48.274;7.796;2023-05-19T13:32:38;4.38;;;2.20;;
7359;SDS011;3720;48.274;7.796;2023-05-19T13:35:10;5.72;;;2.63;;
7359;SDS011;3720;48.274;7.796;2023-05-19T13:37:43;4.72;;;2.47;;
7359;SDS011;3720;48.274;7.796;2023-05-19T13:40:15;4.63;;;2.40;;
7359;SDS011;3720;48.274;7.796;2023-05-19T13:42:48;4.88;;;2.50;;
7359;SDS011;3720;48.274;7.796;2023-05-19T13:45:20;4.38;;;2.58;;
7359;SDS011;3720;48.274;7.796;2023-05-19T13:47:53;3.97;;;2.42;;
7359;SDS011;3720;48.274;7.796;2023-05-19T13:50:25;3.47;;;2.25;;
7359;SDS011;3720;48.274;7.796;2023-05-19T13:52:57;4.07;;;2.42;;
7359;SDS011;3720;48.274;7.796;2023-05-19T13:55:29;3.75;;;2.33;;
7359;SDS011;3720;48.274;7.796;2023-05-19T13:58:00;4.30;;;2.10;;
7359;SDS011;3720;48.274;7.796;2023-05-19T14:00:33;5.28;;;2.30;;
7359;SDS011;3720;48.274;7.796;2023-05-19T14:03:07;4.40;;;2.20;;
7359;SDS011;3720;48.274;7.796;2023-05-19T14:05:39;3.70;;;2.33;;
7359;SDS011;3720;48.274;7.796;2023-05-19T14:08:12;4.60;;;2.30;;
7359;SDS011;3720;48.274;7.796;2023-05-19T14:10:45;8.18;;;2.42;;
7359;SDS011;3720;48.274;7.796;2023-05-19T14:13:17;3.80;;;2.05;;
7359;SDS011;3720;48.274;7.796;2023-05-19T14:15:49;4.07;;;2.30;;
7359;SDS011;3720;48.274;7.796;2023-05-19T14:18:23;6.85;;;2.53;;
7359;SDS011;3720;48.274;7.796;2023-05-19T14:20:56;5.40;;;2.38;;
7359;SDS011;3720;48.274;7.796;2023-05-19T14:23:27;6.32;;;2.30;;
7359;SDS011;3720;48.274;7.796;2023-05-19T14:26:00;3.97;;;2.60;;
7359;SDS011;3720;48.274;7.796;2023-05-19T14:28:32;6.32;;;2.30;;
7359;SDS011;3720;48.274;7.796;2023-05-19T14:31:05;7.22;;;2.55;;
7359;SDS011;3720;48.274;7.796;2023-05-19T14:33:42;4.17;;;2.20;;
7359;SDS011;3720;48.274;7.796;2023-05-19T14:36:14;4.00;;;2.45;;
7359;SDS011;3720;48.274;7.796;2023-05-19T14:38:46;6.65;;;2.50;;
7359;SDS011;3720;48.274;7.796;2023-05-19T14:41:18;6.00;;;2.47;;
7359;SDS011;3720;48.274;7.796;2023-05-19T14:43:50;6.30;;;2.20;;
7359;SDS011;3720;48.274;7.796;2023-05-19T14:46:23;3.75;;;2.40;;
7359;SDS011;3720;48.274;7.796;2023-05-19T14:48:57;4.18;;;2.63;;
7359;SDS011;3720;48.274;7.796;2023-05-19T14:51:30;5.95;;;2.63;;
7359;SDS011;3720;48.274;7.796;2023-05-19T14:54:02;5.50;;;2.60;;
7359;SDS011;3720;48.274;7.796;2023-05-19T14:56:34;5.57;;;2.63;;
7359;SDS011;3720;48.274;7.796;2023-05-19T14:59:06;7.50;;;2.67;;
7359;SDS011;3720;48.274;7.796;2023-05-19T15:01:38;4.93;;;2.60;;
7359;SDS011;3720;48.274;7.796;2023-05-19T15:04:12;6.72;;;2.88;;
7359;SDS011;3720;48.274;7.796;2023-05-19T15:06:44;8.48;;;2.88;;
7359;SDS011;3720;48.274;7.796;2023-05-19T15:09:16;5.28;;;2.70;;
7359;SDS011;3720;48.274;7.796;2023-05-19T15:11:49;5.22;;;2.60;;
7359;SDS011;3720;48.274;7.796;2023-05-19T15:14:21;5.72;;;2.47;;
7359;SDS011;3720;48.274;7.796;2023-05-19T15:16:53;4.80;;;2.65;;
7359;SDS011;3720;48.274;7.796;2023-05-19T15:19:27;7.35;;;2.78;;
7359;SDS011;3720;48.274;7.796;2023-05-19T15:21:59;6.03;;;3.22;;
7359;SDS011;3720;48.274;7.796;2023-05-19T15:24:31;7.10;;;2.85;;
7359;SDS011;3720;48.274;7.796;2023-05-19T15:27:04;7.43;;;3.13;;
7359;SDS011;3720;48.274;7.796;2023-05-19T15:29:37;4.32;;;2.65;;
7359;SDS011;3720;48.274;7.796;2023-05-19T15:32:09;5.05;;;2.90;;
7359;SDS011;3720;48.274;7.796;2023-05-19T15:34:43;5.00;;;2.83;;
7359;SDS011;3720;48.274;7.796;2023-05-19T15:37:15;7.68;;;2.67;;
7359;SDS011;3720;48.274;7.796;2023-05-19T15:39:47;4.85;;;2.80;;
7359;SDS011;3720;48.274;7.796;2023-05-19T15:42:19;6.07;;;3.00;;
7359;SDS011;3720;48.274;7.796;2023-05-19T15:44:52;6.18;;;3.40;;
7359;SDS011;3720;48.274;7.796;2023-05-19T15:47:24;7.25;;;3.33;;
7359;SDS011;3720;48.274;7.796;2023-05-19T15:49:58;4.97;;;3.03;;
7359;SDS011;3720;48.274;7.796;2023-05-19T15:52:29;9.38;;;3.50;;
7359;SDS011;3720;48.274;7.796;2023-05-19T15:55:01;4.47;;;2.78;;
7359;SDS011;3720;48.274;7.796;2023-05-19T15:57:33;6.43;;;3.85;;
7359;SDS011;3720;48.274;7.796;2023-05-19T16:00:06;6.47;;;3.15;;